Time;durP1;ratioP1;P1;durP2;ratioP2;P2;SDS_P1;SDS_P2;PMS_P1;PMS_P2;Temp;Humidity;BMP_temperature;BMP_pressure;BME280_temperature;BME280_humidity;BME280_pressure;Samples;Min_cycle;Max_cycle;Signal;HPM_P1;HPM_P2
2022/04/23 00:02:10;;;;;;;30.88;12.00;;;;;;;10.26;60.67;100049.81;4727048;30;20525;-82
2022/04/23 00:04:36;;;;;;;34.83;12.95;;;;;;;10.17;61.02;100027.31;4702708;30;20155;-80
2022/04/23 00:07:04;;;;;;;28.63;12.48;;;;;;;10.27;61.18;100050.69;4718753;30;20109;-84
2022/04/23 00:09:34;;;;;;;28.55;12.20;;;;;;;10.17;60.85;100021.25;4747602;30;20071;-81
2022/04/23 00:12:00;;;;;;;36.17;12.40;;;;;;;10.09;60.93;100006.56;4747420;30;20056;-81
2022/04/23 00:14:27;;;;;;;30.80;11.57;;;;;;;10.21;61.04;100030.78;4737858;30;20169;-81
2022/04/23 00:16:57;;;;;;;38.10;11.65;;;;;;;10.23;61.12;100045.53;4716505;30;20048;-83
2022/04/23 00:19:23;;;;;;;37.05;13.00;;;;;;;10.22;61.07;100049.00;4727119;30;20051;-82
2022/04/23 00:21:50;;;;;;;51.40;13.15;;;;;;;10.20;60.93;100053.31;4713634;30;20098;-83
2022/04/23 00:24:17;;;;;;;47.60;12.50;;;;;;;10.02;61.09;100022.19;4728498;30;20064;-81
2022/04/23 00:26:44;;;;;;;33.55;12.70;;;;;;;9.97;61.13;100010.94;4724858;30;20055;-81
2022/04/23 00:29:13;;;;;;;29.45;12.73;;;;;;;10.14;60.98;100042.94;4724276;30;20446;-79
2022/04/23 00:31:41;;;;;;;32.63;12.38;;;;;;;10.14;61.32;100047.28;4727004;30;20087;-82
2022/04/23 00:34:10;;;;;;;28.17;12.25;;;;;;;9.98;61.46;100028.25;4724230;30;20057;-82
2022/04/23 00:36:36;;;;;;;24.33;11.85;;;;;;;9.98;61.23;100023.06;4725824;30;20072;-81
2022/04/23 00:39:05;;;;;;;36.92;11.65;;;;;;;10.13;61.21;100055.94;4728081;30;20071;-81
2022/04/23 00:41:45;;;;;;;29.83;10.82;;;;;;;10.03;61.49;100035.16;4730782;30;20076;-81
2022/04/23 00:44:12;;;;;;;27.25;11.18;;;;;;;10.07;61.48;100049.00;4733837;30;20040;-81
2022/04/23 00:46:37;;;;;;;29.05;11.40;;;;;;;9.92;61.17;100034.34;4730615;30;20048;-82
2022/04/23 00:49:06;;;;;;;29.15;11.82;;;;;;;10.10;61.42;100059.41;4729158;30;20049;-82
2022/04/23 00:51:33;;;;;;;27.95;12.27;;;;;;;9.82;61.15;100006.63;4714172;30;20052;-81
2022/04/23 00:54:04;;;;;;;22.88;11.07;;;;;;;10.07;61.23;100049.91;4713661;30;20044;-81
2022/04/23 00:56:35;;;;;;;25.70;12.35;;;;;;;10.16;61.73;100069.81;4728003;30;20052;-81
2022/04/23 00:59:04;;;;;;;28.08;12.48;;;;;;;10.06;61.28;100027.38;4716110;30;20056;-81
2022/04/23 01:01:36;;;;;;;23.58;12.10;;;;;;;10.01;61.45;100007.47;4714346;30;20059;-81
2022/04/23 01:04:04;;;;;;;26.40;12.05;;;;;;;10.20;61.13;100044.63;4729004;30;20135;-80
2022/04/23 01:06:37;;;;;;;27.27;12.65;;;;;;;10.15;61.24;100046.41;4740891;30;20433;-82
2022/04/23 01:09:08;;;;;;;29.50;13.00;;;;;;;9.98;61.29;100018.72;4749405;30;20446;-80
2022/04/23 01:11:38;;;;;;;29.58;14.32;;;;;;;10.19;61.78;100050.72;4739332;30;20057;-81
2022/04/23 01:14:04;;;;;;;40.80;19.45;;;;;;;10.12;61.43;100038.63;4738748;30;20044;-79
2022/04/23 01:16:30;;;;;;;33.28;16.02;;;;;;;10.18;61.78;100048.97;4739382;30;20052;-80
2022/04/23 01:18:56;;;;;;;37.17;16.23;;;;;;;9.91;61.44;100004.88;4724966;30;20142;-82
2022/04/23 01:21:23;;;;;;;32.92;16.55;;;;;;;9.91;61.81;100015.25;4752390;30;20095;-79
2022/04/23 01:23:53;;;;;;;33.30;15.63;;;;;;;9.36;61.60;99909.75;4751041;30;20041;-80
2022/04/23 01:26:27;;;;;;;28.90;15.07;;;;;;;9.98;61.86;100012.66;4736852;30;20056;-81
2022/04/23 01:28:54;;;;;;;29.55;14.32;;;;;;;9.83;61.88;99995.38;4741648;30;20128;-80
2022/04/23 01:31:21;;;;;;;27.80;15.25;;;;;;;10.00;61.46;100026.53;4739983;30;20077;-80
2022/04/23 01:33:48;;;;;;;28.23;13.25;;;;;;;9.87;61.80;100005.75;4742507;30;20049;-79
2022/04/23 01:36:14;;;;;;;33.58;14.15;;;;;;;9.85;61.80;100011.81;4747318;30;20070;-82
2022/04/23 01:38:45;;;;;;;24.98;14.05;;;;;;;9.89;61.94;100023.94;4762193;30;20052;-83
2022/04/23 01:41:12;;;;;;;32.22;14.00;;;;;;;9.93;61.89;100036.06;4730956;30;20171;-81
2022/04/23 01:43:38;;;;;;;23.35;13.23;;;;;;;9.71;62.16;100006.66;4733519;30;20118;-82
2022/04/23 01:46:04;;;;;;;27.25;13.82;;;;;;;9.71;62.28;100004.06;4750171;30;20083;-80
2022/04/23 01:48:30;;;;;;;28.40;13.85;;;;;;;9.88;62.53;100033.47;4763640;29;20056;-79
2022/04/23 01:50:56;;;;;;;30.98;14.93;;;;;;;9.79;62.56;100013.56;4731702;30;20104;-81
2022/04/23 01:53:25;;;;;;;31.52;14.55;;;;;;;9.76;62.05;100026.56;4728853;30;20080;-83
2022/04/23 01:55:53;;;;;;;31.98;14.48;;;;;;;9.82;62.39;100017.88;4742838;30;20118;-79
2022/04/23 01:58:19;;;;;;;29.45;14.07;;;;;;;9.75;62.36;100006.63;4740157;30;20549;-82
2022/04/23 02:00:45;;;;;;;29.75;13.77;;;;;;;9.81;62.65;100008.38;4712494;30;20186;-83
2022/04/23 02:03:11;;;;;;;27.10;14.63;;;;;;;9.81;62.19;100005.78;4728624;30;20063;-81
2022/04/23 02:05:37;;;;;;;29.90;14.50;;;;;;;9.95;62.56;100023.91;4729321;30;20108;-82
2022/04/23 02:08:03;;;;;;;29.00;14.43;;;;;;;9.97;62.35;100014.38;4726341;30;20513;-81
2022/04/23 02:10:29;;;;;;;30.13;14.23;;;;;;;10.02;62.69;100014.38;4725276;30;20049;-80
2022/04/23 02:12:55;;;;;;;33.80;15.13;;;;;;;9.98;62.35;99997.06;4726143;30;20048;-82
2022/04/23 02:15:22;;;;;;;29.25;14.82;;;;;;;10.14;62.16;100029.94;4710837;30;20121;-79
2022/04/23 02:17:49;;;;;;;34.38;14.77;;;;;;;9.98;62.08;99997.06;4725536;30;20500;-80
2022/04/23 02:20:16;;;;;;;26.20;14.30;;;;;;;9.84;62.38;99974.56;4714860;30;20494;-79
2022/04/23 02:22:44;;;;;;;34.08;15.05;;;;;;;10.01;62.49;100010.06;4743910;30;20075;-82
2022/04/23 02:25:11;;;;;;;27.27;14.35;;;;;;;10.01;62.43;100023.06;4717975;30;20505;-84
2022/04/23 02:27:48;;;;;;;29.65;15.43;;;;;;;9.94;62.21;100012.66;4729959;30;20047;-82
2022/04/23 02:30:16;;;;;;;33.97;15.55;;;;;;;10.03;62.53;100021.31;4726535;30;20040;-81
2022/04/23 02:32:43;;;;;;;31.58;15.57;;;;;;;10.07;62.59;100039.50;4717238;30;20044;-81
2022/04/23 02:35:15;;;;;;;30.63;15.55;;;;;;;10.11;62.48;100035.13;4731361;30;20026;-82
2022/04/23 02:37:44;;;;;;;28.20;15.77;;;;;;;10.02;62.65;100025.63;4733065;30;20167;-81
2022/04/23 02:40:14;;;;;;;35.50;15.52;;;;;;;10.00;62.99;100000.53;4729786;30;20098;-83
2022/04/23 02:42:40;;;;;;;37.50;15.75;;;;;;;10.04;62.21;100017.84;4730345;30;20052;-81
2022/04/23 02:45:13;;;;;;;32.97;15.40;;;;;;;10.10;62.72;100026.50;4727163;30;21009;-81
2022/04/23 02:48:00;;;;;;;28.55;15.18;;;;;;;10.21;62.60;100031.66;4732040;30;20130;-83
2022/04/23 02:50:28;;;;;;;29.33;15.63;;;;;;;10.13;62.77;100011.75;4744565;30;20118;-81
2022/04/23 02:52:56;;;;;;;33.80;16.17;;;;;;;10.24;62.53;100031.66;4752306;30;20098;-81
2022/04/23 02:55:24;;;;;;;32.03;14.52;;;;;;;10.22;62.44;100022.09;4724416;30;20066;-83
2022/04/23 02:57:50;;;;;;;31.75;15.30;;;;;;;10.24;62.94;100016.03;4724202;30;21027;-82
2022/04/23 03:00:16;;;;;;;32.58;16.45;;;;;;;10.35;62.66;100029.00;4742645;30;20044;-80
2022/04/23 03:02:44;;;;;;;28.08;15.20;;;;;;;10.24;62.52;99999.56;4741559;30;20072;-80
2022/04/23 03:05:12;;;;;;;27.08;15.80;;;;;;;10.17;62.03;99987.44;4729601;30;20048;-81
2022/04/23 03:07:39;;;;;;;31.60;15.15;;;;;;;10.35;62.16;100022.91;4714487;30;20494;-82
2022/04/23 03:10:07;;;;;;;31.33;15.70;;;;;;;10.47;62.42;100033.31;4726982;30;20044;-79
2022/04/23 03:12:36;;;;;;;29.05;14.35;;;;;;;10.36;62.31;100017.72;4743765;30;20052;-82
2022/04/23 03:15:07;;;;;;;34.78;13.68;;;;;;;10.47;62.56;100024.63;4725480;30;20537;-82
2022/04/23 03:17:33;;;;;;;33.03;14.45;;;;;;;10.43;62.34;100018.59;4746512;30;20105;-82
2022/04/23 03:19:59;;;;;;;29.63;14.55;;;;;;;10.52;62.26;100036.72;4726386;30;20044;-81
2022/04/23 03:22:26;;;;;;;32.22;14.15;;;;;;;10.20;62.42;99982.22;4727904;30;20071;-81
2022/04/23 03:24:52;;;;;;;33.08;14.23;;;;;;;10.50;62.31;100037.63;4742810;30;20238;-83
2022/04/23 03:27:18;;;;;;;27.85;14.18;;;;;;;10.41;62.32;100020.31;4719320;30;20075;-80
2022/04/23 03:29:44;;;;;;;30.85;15.18;;;;;;;10.40;61.99;100026.41;4735695;30;20060;-81
2022/04/23 03:32:10;;;;;;;26.10;14.32;;;;;;;10.52;62.77;100041.09;4745135;30;20060;-82
2022/04/23 03:34:37;;;;;;;28.02;14.48;;;;;;;10.40;62.59;100021.19;4731120;30;20049;-83
2022/04/23 03:37:04;;;;;;;29.83;16.20;;;;;;;10.30;62.74;100009.94;4718800;30;20052;-81
2022/04/23 03:39:35;;;;;;;33.72;15.23;;;;;;;10.20;62.69;99983.09;4741186;30;20043;-80
2022/04/23 03:42:03;;;;;;;30.42;16.33;;;;;;;10.38;63.35;100017.69;4725546;30;20065;-81
2022/04/23 03:44:31;;;;;;;30.40;16.00;;;;;;;10.27;63.55;99993.47;4724463;30;20057;-83
2022/04/23 03:46:58;;;;;;;29.80;15.60;;;;;;;10.50;63.75;100030.66;4724823;30;20119;-83
2022/04/23 03:49:24;;;;;;;34.20;16.92;;;;;;;10.34;63.88;100000.38;4713029;30;20383;-81
2022/04/23 03:51:51;;;;;;;30.75;17.38;;;;;;;10.52;64.29;100026.31;4725229;30;20551;-81
2022/04/23 03:54:17;;;;;;;34.30;15.63;;;;;;;10.47;64.50;100027.22;4725490;30;20106;-81
2022/04/23 03:56:44;;;;;;;28.00;16.42;;;;;;;10.45;64.54;100029.84;4743972;30;20498;-82
2022/04/23 03:59:10;;;;;;;29.98;16.50;;;;;;;10.51;64.83;100042.81;4724925;30;20045;-81
2022/04/23 04:01:36;;;;;;;32.70;16.17;;;;;;;10.40;64.90;100029.00;4737311;30;20053;-81
2022/04/23 04:04:02;;;;;;;37.67;16.60;;;;;;;10.01;65.00;99963.25;4724642;30;20110;-79
2022/04/23 04:06:28;;;;;;;30.58;17.23;;;;;;;10.46;65.36;100028.97;4722969;30;20441;-85
2022/04/23 04:08:55;;;;;;;36.78;17.77;;;;;;;10.31;65.16;100016.00;4739530;30;20044;-82
2022/04/23 04:11:22;;;;;;;27.98;15.82;;;;;;;10.52;65.48;100041.94;4713472;30;20049;-80
2022/04/23 04:13:48;;;;;;;30.08;16.13;;;;;;;10.26;65.68;99992.63;4727228;30;20125;-84
2022/04/23 04:16:15;;;;;;;33.92;16.77;;;;;;;10.46;65.65;99991.69;4738379;30;20072;-81
2022/04/23 04:18:42;;;;;;;28.30;17.58;;;;;;;10.79;65.69;100032.25;4724062;30;20084;-81
2022/04/23 04:21:09;;;;;;;33.60;18.92;;;;;;;10.68;66.02;100006.28;4730569;30;20056;-83
2022/04/23 04:23:35;;;;;;;30.50;17.25;;;;;;;10.64;66.33;99982.91;4726092;30;20405;-82
2022/04/23 04:26:01;;;;;;;28.67;17.15;;;;;;;10.94;66.29;100022.63;4743686;30;20459;-83
2022/04/23 04:28:31;;;;;;;27.08;16.88;;;;;;;11.00;66.42;100028.66;4743602;30;20056;-80
2022/04/23 04:33:41;;;;;;;37.78;19.00;;;;;;;11.09;66.21;100022.53;4745329;30;20040;-83
2022/04/23 04:36:07;;;;;;;33.42;17.77;;;;;;;11.06;66.46;99993.00;4742672;30;20075;-83
2022/04/23 04:38:33;;;;;;;35.33;16.98;;;;;;;11.22;66.60;100002.47;4740743;30;20043;-82
2022/04/23 04:40:59;;;;;;;30.95;18.30;;;;;;;11.51;66.67;100032.59;4740717;30;20201;-79
2022/04/23 04:43:25;;;;;;;31.00;17.85;;;;;;;11.54;66.84;100018.69;4744351;30;20136;-80
2022/04/23 04:45:51;;;;;;;30.05;17.60;;;;;;;11.58;66.60;100009.97;4729465;30;20048;-82
2022/04/23 04:48:17;;;;;;;31.48;18.42;;;;;;;11.69;66.90;100002.88;4729044;30;20075;-83
2022/04/23 04:50:44;;;;;;;30.42;17.35;;;;;;;11.92;67.09;100030.47;4728973;30;20049;-79
2022/04/23 04:53:09;;;;;;;29.88;17.67;;;;;;;11.96;66.82;100023.44;4724381;30;20055;-79
2022/04/23 04:55:36;;;;;;;34.53;16.83;;;;;;;12.14;66.94;100032.84;4721427;30;20048;-84
2022/04/23 04:58:04;;;;;;;31.20;16.98;;;;;;;12.09;66.33;100006.84;4752753;30;20118;-81
2022/04/23 05:00:30;;;;;;;29.48;17.50;;;;;;;12.21;66.03;100013.66;4751755;30;20751;-80
2022/04/23 05:02:59;;;;;;;29.58;17.27;;;;;;;12.40;65.64;100034.28;4745831;30;20091;-80
2022/04/23 05:05:26;;;;;;;25.30;17.08;;;;;;;12.48;65.82;100027.22;4749737;30;20132;-80
2022/04/23 05:07:52;;;;;;;28.52;16.98;;;;;;;12.57;65.33;100028.88;4735570;30;20565;-79
2022/04/23 05:10:17;;;;;;;26.40;16.15;;;;;;;12.47;64.92;100005.47;4742543;30;20146;-84
2022/04/23 05:12:44;;;;;;;27.30;15.55;;;;;;;12.70;64.64;100026.91;4728160;30;20052;-80
2022/04/23 05:15:11;;;;;;;25.33;15.57;;;;;;;12.72;64.54;100009.47;4727521;30;20048;-80
2022/04/23 05:17:39;;;;;;;25.05;15.25;;;;;;;12.89;64.08;100023.19;4714510;30;20063;-79
2022/04/23 05:20:05;;;;;;;23.83;15.70;;;;;;;12.86;63.66;100030.19;4712545;30;20044;-80
2022/04/23 05:22:31;;;;;;;20.83;14.48;;;;;;;12.92;63.29;100022.25;4712328;30;20057;-82
2022/04/23 05:24:58;;;;;;;27.23;15.88;;;;;;;12.88;62.80;100003.19;4724610;30;20049;-80
2022/04/23 05:27:26;;;;;;;22.65;15.07;;;;;;;12.94;62.90;99990.00;4723054;30;20525;-82
2022/04/23 05:29:52;;;;;;;22.25;15.50;;;;;;;13.24;62.08;100000.84;4737954;30;20049;-80
2022/04/23 05:32:17;;;;;;;22.77;14.40;;;;;;;13.50;61.88;100015.25;4724461;30;20045;-81
2022/04/23 05:34:44;;;;;;;23.48;14.27;;;;;;;13.60;61.20;99997.66;4728903;30;20075;-82
2022/04/23 05:37:10;;;;;;;20.90;14.07;;;;;;;13.89;61.01;100009.34;4725222;30;20143;-82
2022/04/23 05:39:36;;;;;;;20.10;14.23;;;;;;;13.96;60.40;100002.22;4722952;30;20055;-80
2022/04/23 05:42:02;;;;;;;21.42;14.60;;;;;;;14.11;59.98;100007.16;4698278;30;20071;-76
2022/04/23 05:44:29;;;;;;;23.20;16.15;;;;;;;14.08;59.18;100003.75;4723692;30;20053;-83
2022/04/23 05:46:55;;;;;;;18.77;14.52;;;;;;;14.26;58.84;100002.47;4733891;30;20057;-81
2022/04/23 05:49:21;;;;;;;22.08;14.93;;;;;;;14.58;58.41;100019.25;4732320;30;20045;-82
2022/04/23 05:51:47;;;;;;;21.23;14.50;;;;;;;14.93;58.02;100014.16;4730289;30;20080;-82
2022/04/23 05:54:13;;;;;;;20.00;14.75;;;;;;;15.31;57.10;99997.50;4711061;30;20115;-79
2022/04/23 05:56:39;;;;;;;21.25;14.60;;;;;;;15.85;56.31;99979.47;4726186;30;21672;-83
2022/04/23 05:59:05;;;;;;;20.40;14.25;;;;;;;16.63;55.08;99978.09;4729958;30;20047;-83
2022/04/23 06:01:31;;;;;;;19.52;13.40;;;;;;;17.57;54.20;99925.94;4726515;30;20056;-80
2022/04/23 06:03:57;;;;;;;21.00;14.45;;;;;;;18.97;51.52;99976.91;4739404;30;20057;-82
2022/04/23 06:06:23;;;;;;;22.88;14.57;;;;;;;19.69;49.65;99948.34;4727268;30;20044;-81
2022/04/23 06:08:49;;;;;;;23.60;16.38;;;;;;;19.77;47.78;99950.66;4725588;30;20140;-82
2022/04/23 06:11:15;;;;;;;22.48;15.60;;;;;;;19.96;46.68;99993.81;4729415;30;20040;-81
2022/04/23 06:13:41;;;;;;;22.48;16.00;;;;;;;19.74;46.02;99982.44;4726198;30;20063;-84
2022/04/23 06:16:07;;;;;;;22.40;15.90;;;;;;;19.87;45.77;99973.06;4724806;30;21381;-82
2022/04/23 06:18:34;;;;;;;18.42;15.25;;;;;;;20.26;44.96;99951.06;4740089;30;20057;-82
2022/04/23 06:21:22;;;;;;;18.95;14.63;;;;;;;20.37;43.73;99991.97;4732503;30;20212;-82
2022/04/23 06:23:48;;;;;;;25.42;16.33;;;;;;;19.91;43.59;99995.78;4732855;30;20077;-80
2022/04/23 06:26:17;;;;;;;21.23;16.73;;;;;;;18.92;43.43;99905.84;4715676;30;20044;-81
2022/04/23 06:28:43;;;;;;;25.40;17.23;;;;;;;19.03;44.36;100012.69;4719458;30;20063;-82
2022/04/23 06:31:10;;;;;;;22.98;16.95;;;;;;;18.46;44.40;99952.50;4726710;30;20060;-83
2022/04/23 06:33:36;;;;;;;21.15;15.52;;;;;;;18.18;44.49;99945.69;4735529;30;20048;-83
2022/04/23 06:36:02;;;;;;;20.77;16.05;;;;;;;18.34;44.90;100007.41;4738217;30;20075;-84
2022/04/23 06:38:28;;;;;;;23.55;16.98;;;;;;;17.65;45.70;99905.50;4731236;30;20125;-81
2022/04/23 06:41:00;;;;;;;20.83;16.08;;;;;;;18.68;45.46;99970.97;4751233;30;20021;-84
2022/04/23 06:43:29;;;;;;;24.20;17.65;;;;;;;18.88;44.26;99940.31;4761708;30;20044;-82
2022/04/23 06:46:06;;;;;;;23.35;17.27;;;;;;;19.07;43.69;99891.19;4728867;30;20048;-78
2022/04/23 06:48:36;;;;;;;26.38;18.08;;;;;;;19.82;43.03;99938.09;4752468;30;20048;-81
2022/04/23 06:51:02;;;;;;;24.40;15.77;;;;;;;20.65;42.30;99988.03;4732145;30;20055;-82
2022/04/23 06:53:28;;;;;;;22.30;16.10;;;;;;;20.96;42.25;99973.38;4749459;30;20083;-80
2022/04/23 06:55:54;;;;;;;24.08;15.88;;;;;;;20.94;42.12;99978.72;4753566;30;20090;-79
2022/04/23 06:58:22;;;;;;;22.70;16.10;;;;;;;21.39;41.28;99996.78;4742466;30;20105;-78
2022/04/23 07:00:48;;;;;;;21.73;15.90;;;;;;;21.05;40.69;99992.28;4738648;30;20040;-83
2022/04/23 07:03:14;;;;;;;23.88;16.85;;;;;;;21.06;40.75;99975.47;4754760;30;20129;-82
2022/04/23 07:05:40;;;;;;;23.33;16.73;;;;;;;21.03;40.19;99965.06;4737423;30;20052;-82
2022/04/23 07:08:10;;;;;;;21.25;16.13;;;;;;;21.49;40.02;99993.59;4721952;30;20055;-81
2022/04/23 07:10:36;;;;;;;24.73;16.02;;;;;;;21.39;39.92;99960.63;4753563;30;20052;-78
2022/04/23 07:13:03;;;;;;;24.10;15.35;;;;;;;22.12;39.91;99992.09;4728535;30;20136;-80
2022/04/23 07:15:31;;;;;;;23.52;15.77;;;;;;;23.29;38.42;99906.00;4736184;30;20044;-81
2022/04/23 07:18:00;;;;;;;18.27;14.27;;;;;;;23.88;37.17;99836.84;4716707;30;20050;-80
2022/04/23 07:20:26;;;;;;;23.30;14.43;;;;;;;24.97;34.88;99901.63;4733721;30;20135;-80
2022/04/23 07:25:39;;;;;;;19.95;14.40;;;;;;;25.36;33.72;99977.13;4750407;30;20099;-82
2022/04/23 07:28:14;;;;;;;23.08;14.98;;;;;;;25.35;33.78;99950.56;4736808;30;20047;-80
2022/04/23 07:30:48;;;;;;;21.38;15.70;;;;;;;25.25;33.41;99980.50;4735981;30;20124;-81
2022/04/23 07:39:10;;;;;;;21.20;16.45;;;;;;;27.38;31.77;99941.31;4717945;30;20254;-82
2022/04/23 07:41:36;;;;;;;21.80;16.15;;;;;;;28.85;29.14;99924.31;4711865;30;20064;-84
2022/04/23 07:44:14;;;;;;;24.33;16.05;;;;;;;28.95;28.21;99969.06;4713048;30;20052;-84
2022/04/23 07:46:40;;;;;;;21.85;15.27;;;;;;;28.80;28.32;99968.50;4717056;30;21628;-84
2022/04/23 07:49:06;;;;;;;19.35;15.18;;;;;;;29.75;27.48;99959.56;4708534;30;20052;-82
2022/04/23 07:51:36;;;;;;;19.58;13.95;;;;;;;29.59;26.71;99933.25;4717434;30;20060;-82
2022/04/23 07:54:02;;;;;;;20.65;14.13;;;;;;;28.98;26.41;99940.19;4726836;30;20048;-84
2022/04/23 07:56:51;;;;;;;17.85;14.82;;;;;;;27.98;26.93;99961.69;4725421;30;20060;-82
2022/04/23 07:59:20;;;;;;;17.08;14.18;;;;;;;27.81;26.86;99913.94;4723506;30;20052;-84
2022/04/23 08:01:51;;;;;;;19.42;14.68;;;;;;;28.37;25.83;99954.13;4752744;30;20059;-80
2022/04/23 08:04:18;;;;;;;17.08;13.55;;;;;;;28.23;26.79;99891.91;4758413;30;20057;-80
2022/04/23 08:06:44;;;;;;;19.73;14.38;;;;;;;28.89;25.58;99902.63;4740546;30;20050;-79
2022/04/23 08:09:39;;;;;;;16.90;13.85;;;;;;;30.18;25.42;99905.81;4738208;30;20040;-80
2022/04/23 08:12:24;;;;;;;16.60;13.40;;;;;;;30.17;24.46;99898.75;4735032;30;20102;-81
2022/04/23 08:14:53;;;;;;;17.63;12.75;;;;;;;30.23;24.28;99948.34;4761468;30;20052;-83
2022/04/23 08:17:22;;;;;;;15.70;13.27;;;;;;;29.19;24.63;99947.38;4758237;30;20044;-80
2022/04/23 08:19:47;;;;;;;17.63;14.00;;;;;;;28.26;24.49;99925.56;4763386;30;20052;-83
2022/04/23 08:22:36;;;;;;;;;;;;;;;;;;;;;
2022/04/23 08:25:08;;;;;;;19.20;14.88;;;;;;;26.35;26.29;99916.06;4738025;30;20054;-82
2022/04/23 08:30:53;;;;;;;19.63;14.02;;;;;;;25.61;27.78;99967.44;4749240;30;20142;-82
2022/04/23 08:33:19;;;;;;;18.13;14.77;;;;;;;24.87;28.85;99953.78;4722125;30;20098;-81
2022/04/23 08:36:10;;;;;;;20.23;13.55;;;;;;;23.92;29.58;99901.31;4734445;30;20047;-82
2022/04/23 08:39:18;;;;;;;18.92;13.30;;;;;;;22.69;30.20;99936.91;4736493;30;20055;-81
2022/04/23 08:43:02;;;;;;;18.90;13.25;;;;;;;21.82;31.16;99878.06;4749191;30;20119;-80
2022/04/23 08:46:06;;;;;;;22.35;14.82;;;;;;;21.60;31.77;99940.09;4731014;30;20160;-83
2022/04/23 08:48:50;;;;;;;16.95;14.15;;;;;;;21.24;33.08;99964.91;4748962;30;20040;-84
2022/04/23 08:51:25;;;;;;;21.42;13.90;;;;;;;20.77;32.92;99837.63;4732767;30;20179;-81
2022/04/23 08:53:57;;;;;;;17.88;12.07;;;;;;;20.95;32.69;99852.66;4731140;30;20058;-82
2022/04/23 08:56:29;;;;;;;19.52;11.10;;;;;;;21.33;32.71;99960.94;4721243;30;20198;-79
2022/04/23 08:59:00;;;;;;;17.85;11.70;;;;;;;21.52;33.38;99935.22;4749967;30;20052;-83
2022/04/23 09:01:32;;;;;;;15.82;11.45;;;;;;;21.72;32.71;99872.44;4750477;30;20062;-82
2022/04/23 09:04:05;;;;;;;13.73;10.95;;;;;;;23.10;31.05;99965.47;4750179;30;20228;-81
2022/04/23 09:06:56;;;;;;;15.52;11.35;;;;;;;23.07;30.69;99861.31;4713590;30;20082;-84
2022/04/23 09:09:26;;;;;;;18.42;11.82;;;;;;;24.51;28.94;99943.59;4735496;30;20112;-82
2022/04/23 09:12:00;;;;;;;15.50;11.15;;;;;;;24.45;29.46;99874.03;4732661;30;20080;-81
2022/04/23 09:14:31;;;;;;;15.10;10.55;;;;;;;25.92;28.28;99943.13;4732121;30;20089;-81
2022/04/23 09:25:35;;;;;;;13.80;9.80;;;;;;;26.88;26.24;99893.53;4742003;30;20079;-86
2022/04/23 09:28:30;;;;;;;13.85;9.57;;;;;;;26.41;26.27;99938.78;4737706;30;20094;-83
2022/04/23 09:31:12;;;;;;;13.48;9.23;;;;;;;25.37;27.46;99885.63;4721343;30;20044;-82
2022/04/23 09:34:13;;;;;;;9.50;8.40;;;;;;;26.86;26.64;99936.34;4735884;30;20083;-86
2022/04/23 09:37:00;;;;;;;;;;;;;;;;;;;;;
2022/04/23 09:39:55;;;;;;;10.00;8.43;;;;;;;29.76;24.22;99918.38;4726185;30;20064;-81
2022/04/23 09:42:40;;;;;;;9.30;7.65;;;;;;;30.38;23.21;99879.00;4740054;30;20063;-85
2022/04/23 09:45:30;;;;;;;11.18;7.20;;;;;;;30.45;22.54;99853.31;4748279;30;20082;-84
2022/04/23 09:48:03;;;;;;;9.48;7.32;;;;;;;29.74;22.68;99917.66;4727200;30;20055;-82
2022/04/23 09:51:21;;;;;;;8.38;7.45;;;;;;;27.50;23.06;99878.97;4749738;30;20083;-81
2022/04/23 09:54:03;;;;;;;8.40;7.47;;;;;;;26.57;23.85;99930.50;4675681;30;20175;-83
2022/04/23 09:56:38;;;;;;;10.00;7.32;;;;;;;26.06;24.14;99939.47;4712985;30;20125;-81
2022/04/23 09:59:11;;;;;;;7.60;6.35;;;;;;;26.43;24.10;99889.66;4704186;30;20079;-84
2022/04/23 10:01:44;;;;;;;7.38;6.00;;;;;;;26.89;24.02;99905.91;4763960;30;20095;-83
2022/04/23 10:04:12;;;;;;;9.85;6.38;;;;;;;27.88;22.67;99913.44;4745134;30;20064;-81
2022/04/23 10:07:01;;;;;;;8.82;5.85;;;;;;;28.40;22.08;99842.38;4741079;30;20078;-84
2022/04/23 10:12:22;;;;;;;7.68;5.97;;;;;;;30.76;20.29;99770.78;4776033;30;20056;-82
2022/04/23 10:14:59;;;;;;;8.60;6.32;;;;;;;31.48;18.82;99915.41;4783818;30;20138;-80
2022/04/23 10:17:28;;;;;;;8.50;7.35;;;;;;;30.22;19.66;99895.69;4765077;30;20505;-83
2022/04/23 10:19:55;;;;;;;7.75;6.15;;;;;;;30.03;19.09;99908.91;4757587;30;20089;-81
2022/04/23 10:22:31;;;;;;;7.07;5.90;;;;;;;30.74;19.71;99900.81;4755947;30;20059;-81
2022/04/23 10:25:22;;;;;;;14.07;6.82;;;;;;;32.05;18.56;99892.09;4749619;30;20051;-79
2022/04/23 10:27:52;;;;;;;7.50;6.05;;;;;;;32.71;17.40;99874.75;4746002;30;20874;-83
2022/04/23 10:30:39;;;;;;;9.32;5.82;;;;;;;32.71;18.10;99890.94;4745403;30;20055;-83
2022/04/23 10:33:46;;;;;;;7.60;5.55;;;;;;;31.71;17.69;99888.16;4751443;30;20082;-80
2022/04/23 10:36:16;;;;;;;11.18;6.30;;;;;;;29.94;18.69;99893.59;4735023;30;20144;-82
2022/04/23 10:38:51;;;;;;;7.93;6.43;;;;;;;28.18;20.24;99904.81;4746759;30;20434;-80
2022/04/23 10:41:22;;;;;;;9.27;6.70;;;;;;;26.08;21.97;99839.78;4747087;30;20136;-81
2022/04/23 10:44:04;;;;;;;9.60;6.43;;;;;;;25.14;22.50;99889.03;4766535;30;20072;-79
2022/04/23 10:46:36;;;;;;;8.30;6.78;;;;;;;24.10;23.63;99898.44;4758662;30;20179;-80
2022/04/23 10:49:22;;;;;;;9.55;6.32;;;;;;;23.64;24.66;99875.59;4854670;24;20063;-82
2022/04/23 10:51:56;;;;;;;9.38;6.15;;;;;;;23.34;25.06;99882.72;4759409;30;21099;-82
2022/04/23 10:54:54;;;;;;;8.45;6.55;;;;;;;22.63;25.32;99886.88;4771476;30;20158;-83
2022/04/23 10:57:23;;;;;;;12.07;6.43;;;;;;;22.46;26.32;99893.16;4752736;30;20112;-82
2022/04/23 10:59:53;;;;;;;10.75;6.70;;;;;;;22.02;26.76;99854.94;4758327;30;20051;-83
2022/04/23 11:02:19;;;;;;;9.57;5.85;;;;;;;22.11;26.61;99889.72;4758404;30;20048;-82
2022/04/23 11:14:01;;;;;;;11.43;6.50;;;;;;;21.65;26.93;99881.63;4775186;30;20067;-79
2022/04/23 11:16:30;;;;;;;11.82;7.03;;;;;;;21.15;27.41;99826.00;4734262;30;20043;-82
2022/04/23 11:18:59;;;;;;;7.13;5.90;;;;;;;21.19;27.27;99871.66;4745555;30;20044;-79
2022/04/23 11:21:27;;;;;;;7.65;5.53;;;;;;;21.09;27.96;99867.78;4716467;30;20062;-82
2022/04/23 11:23:55;;;;;;;9.75;5.80;;;;;;;20.72;27.76;99863.41;4749710;30;20480;-80
2022/04/23 11:26:42;;;;;;;9.80;6.20;;;;;;;20.43;28.56;99833.16;4757339;30;20118;-79
2022/04/23 11:29:09;;;;;;;7.60;5.40;;;;;;;20.36;28.24;99858.16;4731446;30;21242;-82
2022/04/23 11:31:36;;;;;;;8.07;5.90;;;;;;;20.07;28.90;99866.56;4753361;30;20035;-80
2022/04/23 11:34:02;;;;;;;10.57;6.25;;;;;;;20.05;29.35;99860.47;4771933;29;20050;-80
2022/04/23 11:36:37;;;;;;;8.18;5.72;;;;;;;20.15;29.48;99851.22;4749009;30;20052;-80
2022/04/23 11:39:09;;;;;;;11.10;6.03;;;;;;;20.32;28.98;99855.66;4748251;30;20108;-79
2022/04/23 11:41:39;;;;;;;7.88;5.38;;;;;;;19.81;29.89;99858.03;4737055;30;20093;-79
2022/04/23 11:47:30;;;;;;;12.70;6.07;;;;;;;19.82;29.63;99854.47;4788851;24;20304;-82
2022/04/23 11:50:16;;;;;;;10.50;6.40;;;;;;;19.84;29.87;99857.88;4774943;30;20064;-80
2022/04/23 11:52:44;;;;;;;8.73;5.22;;;;;;;19.90;29.45;99853.28;4764624;30;20059;-81
2022/04/23 11:55:26;;;;;;;8.38;5.35;;;;;;;19.49;29.27;99753.97;4778352;30;20076;-83
2022/04/23 11:57:59;;;;;;;11.80;5.85;;;;;;;20.05;29.53;99836.72;4750209;30;20679;-80
2022/04/23 12:00:33;;;;;;;6.93;5.38;;;;;;;19.99;29.57;99787.69;4759252;30;20087;-80
2022/04/23 12:03:00;;;;;;;11.05;6.53;;;;;;;20.24;29.17;99817.34;4745927;30;20064;-82
2022/04/23 12:05:32;;;;;;;8.52;5.53;;;;;;;20.29;29.62;99841.75;4761442;30;20042;-81
2022/04/23 12:07:59;;;;;;;9.07;5.60;;;;;;;19.64;29.42;99749.75;4744772;30;20125;-78
2022/04/23 12:10:30;;;;;;;6.30;5.20;;;;;;;20.17;29.38;99852.00;4729550;30;20071;-78
2022/04/23 12:13:05;;;;;;;7.60;4.93;;;;;;;19.81;28.57;99741.03;4757351;30;20048;-81
2022/04/23 12:25:29;;;;;;;7.50;5.75;;;;;;;19.59;28.82;99783.41;4738004;30;20061;-83